Etusivu
METAR-TAF:

METAR-TAF

Lentoasemat :

St Athan, Wales

Leveyspiiri: 51-24N, Pituuspiiri: 003-26W, korkeus merenpinnasta: 50 m

Tämänhetkinen sää

Tämä raportti tehtiin 48 minuuttia sitten, kello 02.50 UTC
Tuuli 4 kn lännestä
Lämpötila 8°C
Kosteus 100%
Ilmanpaine 1025 hPa
Näkyvyys: 6000 m
utua

METAR: EGDX 190250Z AUTO 26004KT 6000 BR BKN002/// BKN011/// 08/08 Q1025

Aika: 03:38 (03:38 UTC)


TAF: puuttuu

Säähavainnot ja -ennusteet yli 4000 lentoasemalta (METAR- ja TAF-raportit).

Käytössä olevat sääasemat on merkitty karttaan keltaisilla ja punaisilla pisteillä.

Aseta hiiri pisteen päälle nähdäksesi sääaseman nimen.

Klikkaa sitten nähdäksesi säähavainnot ja -ennusteet.

Kartan vaihtaminen: klikkaa mustalla rastilla varustettuja vihreitä pisteitä, niin voit zoomata sisään; viivalla varustettua vihreää pistettä, niin voit zoomata ulos tai vihreitä nuolia, niin pääset viereisille kartoille.


METAR-TAF: